createdAt,value
2022-07-27T00:01:27.635Z,13.52
2022-07-27T00:03:58.979Z,13.65
2022-07-27T00:06:28.992Z,13.63
2022-07-27T00:08:57.951Z,13.69
2022-07-27T00:11:26.672Z,13.63
2022-07-27T00:13:56.245Z,13.61
2022-07-27T00:16:27.521Z,13.53
2022-07-27T00:18:57.482Z,13.51
2022-07-27T00:21:27.641Z,13.49
2022-07-27T00:23:55.804Z,13.63
2022-07-27T00:26:25.230Z,13.64
2022-07-27T00:28:54.705Z,13.60
2022-07-27T00:31:25.733Z,13.72
2022-07-27T00:33:55.319Z,13.70
2022-07-27T00:36:26.328Z,13.88
2022-07-27T00:39:50.781Z,13.64
2022-07-27T00:42:29.672Z,13.70
2022-07-27T00:44:57.458Z,13.58
2022-07-27T00:47:27.618Z,13.71
2022-07-27T00:49:57.843Z,13.65
2022-07-27T00:52:28.259Z,13.59
2022-07-27T00:54:58.682Z,13.53
2022-07-27T00:57:29.093Z,13.67
2022-07-27T00:59:56.205Z,13.53
2022-07-27T01:02:23.635Z,13.52
2022-07-27T01:04:53.585Z,13.49
2022-07-27T01:07:24.565Z,13.46
2022-07-27T01:09:59.700Z,13.65
2022-07-27T01:12:32.259Z,13.67
2022-07-27T01:15:02.091Z,13.65
2022-07-27T01:17:33.553Z,13.88
2022-07-27T01:20:03.555Z,13.72
2022-07-27T01:22:34.191Z,13.76
2022-07-27T01:25:03.792Z,13.77
2022-07-27T01:27:31.968Z,13.78
2022-07-27T01:30:02.856Z,13.62
2022-07-27T01:32:34.495Z,13.60
2022-07-27T01:35:03.055Z,13.71
2022-07-27T01:37:32.252Z,13.59
2022-07-27T01:40:02.193Z,13.59
2022-07-27T01:42:31.083Z,13.67
2022-07-27T01:45:00.834Z,13.79
2022-07-27T01:47:32.917Z,13.56
2022-07-27T01:50:03.569Z,13.47
2022-07-27T01:52:34.528Z,13.33
2022-07-27T01:55:04.696Z,13.30
2022-07-27T01:57:36.281Z,13.28
2022-07-27T02:00:14.368Z,13.19
2022-07-27T02:02:44.270Z,13.09
2022-07-27T02:05:15.106Z,13.07
2022-07-27T02:07:45.324Z,13.12
2022-07-27T02:10:14.509Z,13.14
2022-07-27T02:12:45.052Z,12.93
2022-07-27T02:15:21.018Z,12.83
2022-07-27T02:17:50.321Z,13.02
2022-07-27T02:20:21.422Z,13.04
2022-07-27T02:22:51.611Z,12.96
2022-07-27T02:25:21.573Z,12.94
2022-07-27T02:27:53.291Z,12.96
2022-07-27T02:30:24.350Z,13.08
2022-07-27T02:32:55.632Z,13.00
2022-07-27T02:35:27.383Z,13.02
2022-07-27T02:37:58.024Z,13.22
2022-07-27T02:40:28.939Z,13.10
2022-07-27T02:43:00.176Z,13.12
2022-07-27T02:45:31.182Z,13.18
2022-07-27T02:48:00.937Z,13.25
2022-07-27T02:50:31.070Z,13.16
2022-07-27T02:53:02.564Z,13.18
2022-07-27T02:55:32.938Z,13.09
2022-07-27T02:58:03.681Z,13.14
2022-07-27T03:00:35.537Z,13.13
2022-07-27T03:03:06.421Z,13.04
2022-07-27T03:05:36.936Z,12.90
2022-07-27T03:08:07.359Z,12.79
2022-07-27T03:10:38.995Z,12.79
2022-07-27T03:13:09.700Z,12.74
2022-07-27T03:15:40.338Z,12.65
2022-07-27T03:18:10.943Z,12.60
2022-07-27T03:20:40.519Z,12.58
2022-07-27T03:23:11.770Z,12.49
2022-07-27T03:25:43.068Z,12.49
2022-07-27T03:36:20.356Z,12.27
2022-07-27T03:40:37.784Z,12.14
2022-07-27T03:49:14.405Z,11.95
2022-07-27T03:51:41.595Z,11.94
2022-07-27T03:54:12.443Z,11.96
2022-07-27T03:56:43.733Z,11.90
2022-07-27T03:59:10.717Z,11.88
2022-07-27T04:01:42.568Z,11.88
2022-07-27T04:04:14.222Z,11.89
2022-07-27T04:06:45.760Z,11.87
2022-07-27T04:46:17.181Z,12.74
2022-07-27T04:59:13.475Z,12.92
2022-07-27T05:01:40.243Z,12.98
2022-07-27T05:04:07.440Z,13.07
2022-07-27T05:06:38.634Z,13.02
2022-07-27T05:16:28.790Z,13.43
2022-07-27T05:27:53.882Z,13.57
2022-07-27T05:47:59.152Z,13.56
2022-07-27T06:05:33.908Z,13.94
2022-07-27T06:08:47.290Z,14.06
2022-07-27T06:35:51.176Z,14.86
2022-07-27T06:38:18.976Z,14.84
2022-07-27T06:42:09.443Z,14.98
2022-07-27T06:46:13.360Z,14.92
2022-07-27T06:48:40.911Z,15.04
2022-07-27T06:51:07.796Z,15.10
2022-07-27T06:54:20.377Z,15.17
2022-07-27T06:56:33.347Z,15.59
2022-07-27T06:59:02.226Z,15.61
2022-07-27T07:01:29.337Z,15.91
2022-07-27T07:04:07.201Z,15.93
2022-07-27T07:06:33.995Z,15.95
2022-07-27T07:09:40.793Z,16.11
2022-07-27T07:12:27.933Z,15.93
2022-07-27T07:18:51.801Z,16.64
2022-07-27T07:21:26.558Z,16.68
2022-07-27T07:23:53.124Z,16.80
2022-07-27T07:26:19.677Z,16.85
2022-07-27T07:28:46.208Z,16.89
2022-07-27T07:31:12.799Z,17.14
2022-07-27T07:33:42.776Z,17.16
2022-07-27T07:36:13.883Z,17.51
2022-07-27T07:39:31.476Z,17.59
2022-07-27T07:45:25.951Z,17.36
2022-07-27T07:47:53.127Z,17.19
2022-07-27T07:50:20.548Z,17.07
2022-07-27T07:52:51.745Z,17.06
2022-07-27T07:55:26.230Z,17.03
2022-07-27T07:57:53.333Z,16.93
2022-07-27T08:00:21.089Z,16.91
2022-07-27T08:02:51.394Z,17.04
2022-07-27T08:05:18.933Z,17.18
2022-07-27T08:07:46.295Z,17.23
2022-07-27T08:10:15.138Z,17.13
2022-07-27T08:12:44.877Z,16.87
2022-07-27T08:15:16.579Z,16.71
2022-07-27T08:17:45.347Z,16.78
2022-07-27T08:20:16.469Z,16.80
2022-07-27T08:22:45.729Z,16.90
2022-07-27T08:25:12.847Z,17.16
2022-07-27T08:27:41.015Z,17.19
2022-07-27T08:30:17.824Z,17.30
2022-07-27T08:33:00.062Z,17.43
2022-07-27T08:35:27.862Z,17.49
2022-07-27T08:37:55.307Z,17.75
2022-07-27T08:40:40.287Z,17.77
2022-07-27T08:43:10.062Z,17.79
2022-07-27T08:45:37.534Z,17.69
2022-07-27T08:48:04.733Z,17.61
2022-07-27T08:50:33.767Z,17.74
2022-07-27T08:53:08.645Z,17.72
2022-07-27T08:55:43.925Z,17.62
2022-07-27T08:58:12.356Z,17.67
2022-07-27T09:00:41.121Z,17.33
2022-07-27T09:03:07.801Z,17.88
2022-07-27T09:05:42.417Z,18.02
2022-07-27T09:08:13.383Z,18.17
2022-07-27T09:10:40.152Z,18.47
2022-07-27T09:13:39.048Z,18.16
2022-07-27T09:16:23.518Z,18.19
2022-07-27T09:19:01.336Z,18.16
2022-07-27T09:21:28.546Z,18.19
2022-07-27T09:24:23.441Z,18.23
2022-07-27T09:27:31.124Z,18.33
2022-07-27T09:30:07.229Z,18.04
2022-07-27T09:32:33.748Z,17.91
2022-07-27T09:35:15.867Z,17.81
2022-07-27T09:37:42.375Z,17.64
2022-07-27T09:40:24.226Z,17.72
2022-07-27T09:43:52.242Z,17.65
2022-07-27T09:46:09.898Z,17.65
2022-07-27T09:48:36.950Z,17.66
2022-07-27T09:51:55.852Z,17.97
2022-07-27T09:53:57.725Z,18.22
2022-07-27T09:56:31.698Z,18.06
2022-07-27T09:59:00.247Z,17.92
2022-07-27T10:01:30.972Z,18.33
2022-07-27T10:04:03.890Z,18.74
2022-07-27T10:06:38.908Z,18.37
2022-07-27T10:09:15.524Z,18.24
2022-07-27T10:11:42.188Z,17.77
2022-07-27T10:14:08.773Z,17.95
2022-07-27T10:16:36.961Z,18.44
2022-07-27T10:19:14.184Z,18.76
2022-07-27T10:21:46.917Z,18.76
2022-07-27T10:24:34.836Z,18.66
2022-07-27T10:27:29.124Z,18.79
2022-07-27T10:29:57.304Z,19.10
2022-07-27T10:32:36.354Z,19.21
2022-07-27T10:35:03.143Z,19.45
2022-07-27T10:37:36.433Z,19.58
2022-07-27T10:40:27.804Z,19.76
2022-07-27T10:43:18.329Z,19.63
2022-07-27T10:46:00.022Z,19.79
2022-07-27T10:48:37.603Z,19.93
2022-07-27T10:51:10.899Z,19.58
2022-07-27T10:54:09.825Z,19.31
2022-07-27T11:00:56.734Z,18.34
2022-07-27T11:10:15.773Z,18.15
2022-07-27T11:12:04.551Z,17.77
2022-07-27T11:14:41.661Z,17.73
2022-07-27T11:17:50.910Z,17.79
2022-07-27T11:20:01.601Z,18.04
2022-07-27T11:25:22.369Z,18.13
2022-07-27T11:28:02.179Z,18.04
2022-07-27T11:30:33.466Z,18.03
2022-07-27T11:33:08.539Z,18.02
2022-07-27T11:35:39.049Z,18.11
2022-07-27T11:39:04.421Z,18.38
2022-07-27T11:42:04.702Z,18.15
2022-07-27T11:44:20.264Z,18.17
2022-07-27T11:46:48.476Z,18.06
2022-07-27T11:49:18.180Z,18.00
2022-07-27T11:51:47.222Z,18.02
2022-07-27T11:54:25.788Z,17.72
2022-07-27T11:56:55.569Z,17.89
2022-07-27T11:59:27.208Z,18.01
2022-07-27T12:01:54.526Z,18.10
2022-07-27T12:04:41.693Z,17.84
2022-07-27T12:09:46.749Z,17.70
2022-07-27T12:12:24.189Z,17.90
2022-07-27T12:15:00.353Z,18.05
2022-07-27T12:21:53.593Z,18.25
2022-07-27T12:24:20.569Z,18.22
2022-07-27T12:27:06.429Z,18.28
2022-07-27T12:29:33.841Z,18.43
2022-07-27T12:32:08.211Z,18.10
2022-07-27T12:34:36.034Z,17.91
2022-07-27T12:37:13.893Z,17.92
2022-07-27T12:39:45.349Z,18.16
2022-07-27T12:42:13.017Z,18.44
2022-07-27T12:44:44.809Z,18.54
2022-07-27T12:47:41.761Z,18.61
2022-07-27T12:50:30.986Z,18.72
2022-07-27T12:53:00.958Z,18.71
2022-07-27T12:55:27.771Z,19.07
2022-07-27T12:57:59.395Z,18.87
2022-07-27T13:03:15.556Z,18.75
2022-07-27T13:05:44.230Z,18.51
2022-07-27T13:08:11.360Z,18.79
2022-07-27T13:10:38.361Z,18.68
2022-07-27T13:13:06.498Z,18.71
2022-07-27T13:15:33.373Z,18.54
2022-07-27T13:18:00.216Z,18.50
2022-07-27T13:20:27.185Z,18.51
2022-07-27T13:22:54.280Z,18.67
2022-07-27T13:25:21.417Z,18.87
2022-07-27T13:27:48.993Z,18.84
2022-07-27T13:30:17.784Z,18.87
2022-07-27T13:32:46.826Z,18.52
2022-07-27T13:35:15.003Z,19.01
2022-07-27T13:37:42.111Z,19.09
2022-07-27T13:40:09.980Z,19.27
2022-07-27T13:42:36.989Z,19.47
2022-07-27T13:45:09.690Z,19.53
2022-07-27T13:47:38.797Z,19.37
2022-07-27T13:50:06.201Z,19.38
2022-07-27T13:52:32.776Z,19.08
2022-07-27T13:54:59.244Z,19.00
2022-07-27T13:57:25.787Z,19.03
2022-07-27T13:59:52.476Z,18.93
2022-07-27T14:02:23.168Z,19.13
2022-07-27T14:04:52.798Z,18.93
2022-07-27T14:07:23.525Z,18.48
2022-07-27T14:10:11.550Z,18.67
2022-07-27T14:12:38.066Z,18.88
2022-07-27T14:15:06.547Z,18.61
2022-07-27T14:17:33.085Z,18.65
2022-07-27T14:19:59.651Z,18.13
2022-07-27T14:22:26.149Z,18.21
2022-07-27T14:24:52.662Z,18.32
2022-07-27T14:27:19.165Z,18.55
2022-07-27T14:29:45.821Z,18.56
2022-07-27T14:32:12.819Z,18.82
2022-07-27T14:34:43.635Z,18.65
2022-07-27T14:37:10.727Z,18.96
2022-07-27T14:39:37.427Z,18.99
2022-07-27T14:42:32.816Z,19.09
2022-07-27T14:45:13.275Z,18.95
2022-07-27T14:47:40.299Z,19.08
2022-07-27T14:50:13.519Z,18.90
2022-07-27T14:52:41.109Z,18.59
2022-07-27T14:55:08.153Z,18.65
2022-07-27T14:57:34.741Z,18.77
2022-07-27T15:00:01.315Z,18.76
2022-07-27T15:02:27.877Z,18.43
2022-07-27T15:04:54.641Z,18.33
2022-07-27T15:07:21.747Z,18.28
2022-07-27T15:09:48.276Z,18.50
2022-07-27T15:12:14.891Z,18.81
2022-07-27T15:14:42.223Z,18.89
2022-07-27T15:17:31.191Z,18.74
2022-07-27T15:23:00.682Z,18.63
2022-07-27T15:25:30.720Z,18.43
2022-07-27T15:27:57.477Z,18.49
2022-07-27T15:30:38.761Z,18.45
2022-07-27T15:33:06.333Z,18.31
2022-07-27T15:35:32.952Z,18.30
2022-07-27T15:38:02.414Z,18.15
2022-07-27T15:40:37.048Z,18.17
2022-07-27T15:43:24.326Z,18.22
2022-07-27T15:45:51.161Z,18.52
2022-07-27T15:48:19.793Z,18.56
2022-07-27T15:50:49.322Z,18.35
2022-07-27T15:53:20.006Z,18.68
2022-07-27T15:55:48.747Z,19.05
2022-07-27T15:58:17.951Z,18.96
2022-07-27T16:00:46.486Z,18.80
2022-07-27T16:03:16.457Z,18.56
2022-07-27T16:05:44.753Z,18.53
2022-07-27T16:08:11.612Z,18.37
2022-07-27T16:10:41.504Z,18.14
2022-07-27T16:13:10.069Z,18.11
2022-07-27T16:15:57.566Z,18.30
2022-07-27T16:18:24.620Z,18.26
2022-07-27T16:20:53.792Z,18.16
2022-07-27T16:23:26.708Z,17.89
2022-07-27T16:46:37.613Z,17.40
2022-07-27T16:56:35.410Z,17.41
2022-07-27T17:09:33.268Z,17.47
2022-07-27T17:24:13.548Z,17.06
2022-07-27T17:26:42.947Z,16.76
2022-07-27T17:29:26.207Z,16.81
2022-07-27T17:33:37.288Z,16.95
2022-07-27T17:36:44.201Z,16.47
2022-07-27T17:43:25.700Z,16.65
2022-07-27T17:45:54.761Z,16.71
2022-07-27T17:48:21.280Z,16.52
2022-07-27T17:50:47.913Z,16.46
2022-07-27T17:53:18.270Z,16.58
2022-07-27T17:55:49.825Z,16.58
2022-07-27T18:06:26.181Z,16.43
2022-07-27T18:08:52.702Z,16.46
2022-07-27T18:11:19.354Z,16.20
2022-07-27T18:13:46.977Z,16.28
2022-07-27T18:16:13.999Z,16.25
2022-07-27T18:18:42.075Z,16.15
2022-07-27T18:21:10.694Z,16.31
2022-07-27T18:23:37.916Z,16.18
2022-07-27T18:26:04.475Z,16.30
2022-07-27T18:28:38.750Z,16.30
2022-07-27T18:31:06.436Z,16.37
2022-07-27T18:33:35.029Z,16.23
2022-07-27T18:36:03.338Z,16.03
2022-07-27T18:38:29.831Z,15.82
2022-07-27T18:40:56.372Z,15.78
2022-07-27T18:43:22.967Z,15.75
2022-07-27T18:45:51.085Z,15.47
2022-07-27T18:48:17.601Z,15.45
2022-07-27T18:50:44.333Z,15.31
2022-07-27T18:53:10.894Z,15.03
2022-07-27T18:55:37.559Z,15.13
2022-07-27T18:58:04.881Z,15.12
2022-07-27T19:00:31.830Z,14.95
2022-07-27T19:02:58.686Z,14.92
2022-07-27T19:05:40.917Z,14.79
2022-07-27T19:08:11.896Z,14.86
2022-07-27T19:10:42.145Z,14.72
2022-07-27T19:13:09.088Z,14.55
2022-07-27T19:15:35.998Z,14.66
2022-07-27T19:18:02.978Z,14.68
2022-07-27T19:20:29.585Z,14.57
2022-07-27T19:22:57.678Z,14.84
2022-07-27T19:25:24.505Z,14.56
2022-07-27T19:27:51.328Z,14.61
2022-07-27T19:30:18.330Z,14.68
2022-07-27T19:32:44.884Z,14.67
2022-07-27T19:35:12.162Z,14.71
2022-07-27T19:37:39.916Z,15.09
2022-07-27T19:40:33.378Z,14.62
2022-07-27T19:42:54.943Z,14.38
2022-07-27T19:45:21.799Z,14.40
2022-07-27T19:47:48.341Z,14.42
2022-07-27T19:50:15.592Z,14.16
2022-07-27T19:52:42.617Z,14.05
2022-07-27T19:55:09.669Z,13.97
2022-07-27T19:57:36.165Z,13.77
2022-07-27T20:00:05.050Z,13.53
2022-07-27T20:02:31.966Z,13.30
2022-07-27T20:04:59.183Z,13.21
2022-07-27T20:07:25.816Z,13.00
2022-07-27T20:09:52.398Z,12.75
2022-07-27T20:12:18.911Z,12.61
2022-07-27T20:14:45.412Z,12.53
2022-07-27T20:17:12.309Z,12.48
2022-07-27T20:19:39.719Z,12.42
2022-07-27T20:22:07.000Z,12.38
2022-07-27T20:24:33.758Z,12.43
2022-07-27T20:27:00.386Z,12.48
2022-07-27T20:29:31.843Z,12.42
2022-07-27T20:32:00.281Z,12.52
2022-07-27T20:34:27.178Z,12.34
2022-07-27T20:36:55.299Z,12.28
2022-07-27T20:39:23.510Z,12.17
2022-07-27T20:41:50.393Z,12.21
2022-07-27T20:44:17.623Z,12.27
2022-07-27T20:46:44.319Z,12.16
2022-07-27T20:49:11.261Z,12.21
2022-07-27T20:51:39.354Z,12.06
2022-07-27T20:54:05.867Z,11.94
2022-07-27T20:56:32.361Z,11.99
2022-07-27T20:58:59.050Z,12.06
2022-07-27T21:01:25.685Z,12.06
2022-07-27T21:03:52.263Z,11.99
2022-07-27T21:06:18.780Z,12.00
2022-07-27T21:08:46.835Z,11.96
2022-07-27T21:11:13.720Z,11.99
2022-07-27T21:13:40.803Z,11.96
2022-07-27T21:16:07.885Z,12.08
2022-07-27T21:18:34.481Z,12.20
2022-07-27T21:21:01.044Z,12.19
2022-07-27T21:23:46.014Z,12.33
2022-07-27T21:26:12.528Z,12.37
2022-07-27T21:28:42.040Z,12.53
2022-07-27T21:31:08.858Z,12.83
2022-07-27T21:33:39.599Z,12.77
2022-07-27T21:36:07.011Z,12.78
2022-07-27T21:38:33.515Z,12.81
2022-07-27T21:41:00.236Z,12.82
2022-07-27T21:43:26.813Z,12.89
2022-07-27T21:45:53.389Z,12.93
2022-07-27T21:48:19.936Z,12.93
2022-07-27T21:50:46.517Z,12.93
2022-07-27T21:53:13.089Z,12.96
2022-07-27T21:55:40.995Z,12.94
2022-07-27T21:58:08.341Z,12.92
2022-07-27T22:00:34.883Z,12.86
2022-07-27T22:03:01.469Z,12.83
2022-07-27T22:05:28.012Z,12.73
2022-07-27T22:07:54.591Z,12.66
2022-07-27T22:10:21.349Z,12.59
2022-07-27T22:12:47.909Z,12.52
2022-07-27T22:15:14.456Z,12.40
2022-07-27T22:17:46.030Z,12.27
2022-07-27T22:20:17.416Z,12.22
2022-07-27T22:22:44.057Z,12.12
2022-07-27T22:25:10.716Z,12.03
2022-07-27T22:27:37.246Z,11.98
2022-07-27T22:30:04.227Z,11.86
2022-07-27T22:32:30.767Z,11.82
2022-07-27T22:34:57.278Z,11.72
2022-07-27T22:37:23.780Z,11.71
2022-07-27T22:39:50.255Z,11.73
2022-07-27T22:42:17.147Z,11.48
2022-07-27T22:44:43.812Z,11.47
2022-07-27T22:47:10.622Z,11.36
2022-07-27T22:49:37.347Z,11.17
2022-07-27T22:52:05.061Z,11.05
2022-07-27T22:54:36.552Z,10.98
2022-07-27T22:57:04.423Z,11.00
2022-07-27T22:59:31.088Z,11.05
2022-07-27T23:01:58.015Z,11.08
2022-07-27T23:04:24.753Z,11.13
2022-07-27T23:06:51.627Z,11.13
2022-07-27T23:09:18.638Z,11.13
2022-07-27T23:11:45.456Z,11.16
2022-07-27T23:14:13.081Z,11.04
2022-07-27T23:16:40.460Z,11.07
2022-07-27T23:19:07.204Z,11.05
2022-07-27T23:21:33.790Z,10.84
2022-07-27T23:24:00.805Z,10.84
2022-07-27T23:26:27.479Z,11.03
2022-07-27T23:28:54.186Z,10.73
2022-07-27T23:31:21.536Z,10.72
2022-07-27T23:33:48.406Z,10.69
2022-07-27T23:36:15.122Z,10.72
2022-07-27T23:38:41.887Z,10.79
2022-07-27T23:41:08.639Z,10.56
2022-07-27T23:43:35.258Z,10.58
2022-07-27T23:46:02.821Z,10.42
2022-07-27T23:48:29.443Z,10.45
2022-07-27T23:50:56.029Z,10.22
2022-07-27T23:53:23.902Z,10.23
2022-07-27T23:55:50.471Z,10.28
2022-07-27T23:58:16.977Z,10.23
